sensor_id;sensor_type;location;lat;lon;timestamp;pressure;altitude;pressure_sealevel;temperature
78961;BMP280;68362;45.970;12.646;2023-04-24T00:00:39;100502.97;;;13.97
78961;BMP280;68362;45.970;12.646;2023-04-24T00:01:58;100497.34;;;14.10
78961;BMP280;68362;45.970;12.646;2023-04-24T00:03:00;100497.25;;;13.83
78961;BMP280;68362;45.970;12.646;2023-04-24T00:04:02;100495.81;;;13.93
78961;BMP280;68362;45.970;12.646;2023-04-24T00:05:07;100496.00;;;14.08
78961;BMP280;68362;45.970;12.646;2023-04-24T00:06:09;100493.75;;;14.22
78961;BMP280;68362;45.970;12.646;2023-04-24T00:07:11;100493.41;;;13.91
78961;BMP280;68362;45.970;12.646;2023-04-24T00:08:14;100492.72;;;14.01
78961;BMP280;68362;45.970;12.646;2023-04-24T00:09:17;100486.47;;;14.07
78961;BMP280;68362;45.970;12.646;2023-04-24T00:10:19;100491.81;;;13.90
78961;BMP280;68362;45.970;12.646;2023-04-24T00:11:21;100488.19;;;13.96
78961;BMP280;68362;45.970;12.646;2023-04-24T00:12:24;100488.28;;;14.06
78961;BMP280;68362;45.970;12.646;2023-04-24T00:13:26;100483.19;;;14.22
78961;BMP280;68362;45.970;12.646;2023-04-24T00:14:31;100485.94;;;14.32
78961;BMP280;68362;45.970;12.646;2023-04-24T00:15:33;100481.41;;;14.27
78961;BMP280;68362;45.970;12.646;2023-04-24T00:16:35;100482.00;;;14.34
78961;BMP280;68362;45.970;12.646;2023-04-24T00:17:37;100480.78;;;14.20
78961;BMP280;68362;45.970;12.646;2023-04-24T00:18:39;100479.88;;;14.31
78961;BMP280;68362;45.970;12.646;2023-04-24T00:19:41;100482.25;;;14.33
78961;BMP280;68362;45.970;12.646;2023-04-24T00:20:44;100480.41;;;14.33
78961;BMP280;68362;45.970;12.646;2023-04-24T00:21:46;100483.84;;;14.34
78961;BMP280;68362;45.970;12.646;2023-04-24T00:22:51;100489.16;;;14.39
78961;BMP280;68362;45.970;12.646;2023-04-24T00:23:53;100487.44;;;14.23
78961;BMP280;68362;45.970;12.646;2023-04-24T00:24:55;100482.22;;;14.28
78961;BMP280;68362;45.970;12.646;2023-04-24T00:25:57;100478.50;;;14.29
78961;BMP280;68362;45.970;12.646;2023-04-24T00:26:59;100485.03;;;14.21
78961;BMP280;68362;45.970;12.646;2023-04-24T00:28:02;100475.84;;;14.24
78961;BMP280;68362;45.970;12.646;2023-04-24T00:29:04;100474.56;;;14.04
78961;BMP280;68362;45.970;12.646;2023-04-24T00:30:07;100476.88;;;14.23
78961;BMP280;68362;45.970;12.646;2023-04-24T00:31:09;100482.16;;;14.23
78961;BMP280;68362;45.970;12.646;2023-04-24T00:32:11;100485.81;;;14.22
78961;BMP280;68362;45.970;12.646;2023-04-24T00:33:13;100482.41;;;13.99
78961;BMP280;68362;45.970;12.646;2023-04-24T00:34:15;100478.72;;;13.78
78961;BMP280;68362;45.970;12.646;2023-04-24T00:35:17;100477.63;;;13.74
78961;BMP280;68362;45.970;12.646;2023-04-24T00:36:21;100476.63;;;13.59
78961;BMP280;68362;45.970;12.646;2023-04-24T00:37:23;100477.41;;;13.76
78961;BMP280;68362;45.970;12.646;2023-04-24T00:38:25;100479.47;;;13.74
78961;BMP280;68362;45.970;12.646;2023-04-24T00:39:27;100475.34;;;13.83
78961;BMP280;68362;45.970;12.646;2023-04-24T00:40:29;100468.13;;;13.73
78961;BMP280;68362;45.970;12.646;2023-04-24T00:41:32;100468.56;;;13.87
78961;BMP280;68362;45.970;12.646;2023-04-24T00:42:34;100467.38;;;13.78
78961;BMP280;68362;45.970;12.646;2023-04-24T00:43:36;100461.84;;;13.57
78961;BMP280;68362;45.970;12.646;2023-04-24T00:44:38;100459.75;;;13.60
78961;BMP280;68362;45.970;12.646;2023-04-24T00:45:40;100456.13;;;13.61
78961;BMP280;68362;45.970;12.646;2023-04-24T00:46:43;100455.34;;;13.43
78961;BMP280;68362;45.970;12.646;2023-04-24T00:47:45;100453.41;;;13.55
78961;BMP280;68362;45.970;12.646;2023-04-24T00:48:48;100455.06;;;13.62
78961;BMP280;68362;45.970;12.646;2023-04-24T00:49:50;100451.81;;;13.54
78961;BMP280;68362;45.970;12.646;2023-04-24T00:50:52;100448.25;;;13.66
78961;BMP280;68362;45.970;12.646;2023-04-24T00:51:54;100451.41;;;13.68
78961;BMP280;68362;45.970;12.646;2023-04-24T00:52:57;100450.66;;;13.67
78961;BMP280;68362;45.970;12.646;2023-04-24T00:53:59;100446.75;;;13.75
78961;BMP280;68362;45.970;12.646;2023-04-24T00:55:01;100449.97;;;13.77
78961;BMP280;68362;45.970;12.646;2023-04-24T00:56:04;100437.56;;;13.55
78961;BMP280;68362;45.970;12.646;2023-04-24T00:57:06;100446.09;;;13.24
78961;BMP280;68362;45.970;12.646;2023-04-24T00:58:09;100447.28;;;13.33
78961;BMP280;68362;45.970;12.646;2023-04-24T00:59:16;100441.59;;;13.41
78961;BMP280;68362;45.970;12.646;2023-04-24T01:00:19;100443.84;;;13.33
78961;BMP280;68362;45.970;12.646;2023-04-24T01:01:21;100436.31;;;13.41
78961;BMP280;68362;45.970;12.646;2023-04-24T01:02:23;100431.75;;;13.37
78961;BMP280;68362;45.970;12.646;2023-04-24T01:03:29;100431.38;;;13.45
78961;BMP280;68362;45.970;12.646;2023-04-24T01:04:34;100436.13;;;13.48
78961;BMP280;68362;45.970;12.646;2023-04-24T01:05:36;100426.47;;;13.37
78961;BMP280;68362;45.970;12.646;2023-04-24T01:06:39;100435.53;;;13.41
78961;BMP280;68362;45.970;12.646;2023-04-24T01:07:44;100434.25;;;13.43
78961;BMP280;68362;45.970;12.646;2023-04-24T01:08:47;100429.88;;;13.32
78961;BMP280;68362;45.970;12.646;2023-04-24T01:09:50;100436.38;;;13.24
78961;BMP280;68362;45.970;12.646;2023-04-24T01:10:54;100435.44;;;13.14
78961;BMP280;68362;45.970;12.646;2023-04-24T01:11:57;100432.84;;;13.19
78961;BMP280;68362;45.970;12.646;2023-04-24T01:12:59;100435.34;;;13.09
78961;BMP280;68362;45.970;12.646;2023-04-24T01:14:01;100439.09;;;13.13
78961;BMP280;68362;45.970;12.646;2023-04-24T01:15:04;100439.47;;;13.05
78961;BMP280;68362;45.970;12.646;2023-04-24T01:16:08;100438.94;;;13.19
78961;BMP280;68362;45.970;12.646;2023-04-24T01:17:10;100437.09;;;13.20
78961;BMP280;68362;45.970;12.646;2023-04-24T01:18:13;100433.31;;;13.16
78961;BMP280;68362;45.970;12.646;2023-04-24T01:19:16;100436.16;;;13.09
78961;BMP280;68362;45.970;12.646;2023-04-24T01:20:20;100435.56;;;13.24
78961;BMP280;68362;45.970;12.646;2023-04-24T01:21:23;100432.31;;;13.17
78961;BMP280;68362;45.970;12.646;2023-04-24T01:22:25;100431.56;;;13.21
78961;BMP280;68362;45.970;12.646;2023-04-24T01:23:27;100433.47;;;13.26
78961;BMP280;68362;45.970;12.646;2023-04-24T01:24:30;100428.22;;;13.26
78961;BMP280;68362;45.970;12.646;2023-04-24T01:25:32;100427.09;;;13.22
78961;BMP280;68362;45.970;12.646;2023-04-24T01:26:34;100426.78;;;13.18
78961;BMP280;68362;45.970;12.646;2023-04-24T01:27:36;100426.97;;;13.34
78961;BMP280;68362;45.970;12.646;2023-04-24T01:28:39;100425.78;;;13.41
78961;BMP280;68362;45.970;12.646;2023-04-24T01:29:41;100424.22;;;13.40
78961;BMP280;68362;45.970;12.646;2023-04-24T01:30:43;100427.22;;;13.49
78961;BMP280;68362;45.970;12.646;2023-04-24T01:31:45;100423.13;;;13.41
78961;BMP280;68362;45.970;12.646;2023-04-24T01:32:48;100428.41;;;13.41
78961;BMP280;68362;45.970;12.646;2023-04-24T01:33:51;100420.38;;;13.31
78961;BMP280;68362;45.970;12.646;2023-04-24T01:34:54;100431.47;;;13.33
78961;BMP280;68362;45.970;12.646;2023-04-24T01:35:57;100422.59;;;13.39
78961;BMP280;68362;45.970;12.646;2023-04-24T01:36:59;100421.06;;;13.43
78961;BMP280;68362;45.970;12.646;2023-04-24T01:38:02;100417.09;;;13.41
78961;BMP280;68362;45.970;12.646;2023-04-24T01:39:04;100412.03;;;13.39
78961;BMP280;68362;45.970;12.646;2023-04-24T01:40:07;100417.56;;;13.38
78961;BMP280;68362;45.970;12.646;2023-04-24T01:41:10;100414.13;;;13.37
78961;BMP280;68362;45.970;12.646;2023-04-24T01:42:12;100416.22;;;13.35
78961;BMP280;68362;45.970;12.646;2023-04-24T01:43:14;100412.50;;;13.36
78961;BMP280;68362;45.970;12.646;2023-04-24T01:44:17;100405.91;;;13.34
78961;BMP280;68362;45.970;12.646;2023-04-24T01:45:19;100413.78;;;13.12
78961;BMP280;68362;45.970;12.646;2023-04-24T01:46:21;100423.75;;;13.10
78961;BMP280;68362;45.970;12.646;2023-04-24T01:47:23;100412.91;;;13.06
78961;BMP280;68362;45.970;12.646;2023-04-24T01:48:26;100412.97;;;13.11
78961;BMP280;68362;45.970;12.646;2023-04-24T01:49:29;100408.16;;;13.25
78961;BMP280;68362;45.970;12.646;2023-04-24T01:50:31;100406.00;;;13.22
78961;BMP280;68362;45.970;12.646;2023-04-24T01:51:33;100407.63;;;13.23
78961;BMP280;68362;45.970;12.646;2023-04-24T01:52:35;100409.22;;;13.24
78961;BMP280;68362;45.970;12.646;2023-04-24T01:53:38;100408.03;;;13.37
78961;BMP280;68362;45.970;12.646;2023-04-24T01:54:40;100408.97;;;13.47
78961;BMP280;68362;45.970;12.646;2023-04-24T01:55:42;100407.75;;;13.16
78961;BMP280;68362;45.970;12.646;2023-04-24T01:56:44;100409.88;;;12.97
78961;BMP280;68362;45.970;12.646;2023-04-24T01:57:47;100411.13;;;13.12
78961;BMP280;68362;45.970;12.646;2023-04-24T01:58:50;100403.81;;;12.97
78961;BMP280;68362;45.970;12.646;2023-04-24T01:59:53;100397.25;;;12.99
78961;BMP280;68362;45.970;12.646;2023-04-24T02:00:56;100399.09;;;12.99
78961;BMP280;68362;45.970;12.646;2023-04-24T02:02:00;100397.38;;;13.10
78961;BMP280;68362;45.970;12.646;2023-04-24T02:03:03;100390.38;;;12.98
78961;BMP280;68362;45.970;12.646;2023-04-24T02:04:06;100391.00;;;13.22
78961;BMP280;68362;45.970;12.646;2023-04-24T02:05:09;100388.75;;;13.31
78961;BMP280;68362;45.970;12.646;2023-04-24T02:06:12;100395.13;;;13.35
78961;BMP280;68362;45.970;12.646;2023-04-24T02:07:15;100387.19;;;13.13
78961;BMP280;68362;45.970;12.646;2023-04-24T02:08:17;100389.91;;;13.01
78961;BMP280;68362;45.970;12.646;2023-04-24T02:09:19;100388.19;;;12.90
78961;BMP280;68362;45.970;12.646;2023-04-24T02:10:21;100394.88;;;12.81
78961;BMP280;68362;45.970;12.646;2023-04-24T02:11:23;100383.94;;;12.89
78961;BMP280;68362;45.970;12.646;2023-04-24T02:12:25;100385.31;;;12.75
78961;BMP280;68362;45.970;12.646;2023-04-24T02:13:27;100386.94;;;12.76
78961;BMP280;68362;45.970;12.646;2023-04-24T02:14:30;100380.66;;;12.82
78961;BMP280;68362;45.970;12.646;2023-04-24T02:15:32;100383.47;;;12.92
78961;BMP280;68362;45.970;12.646;2023-04-24T02:16:34;100380.19;;;12.85
78961;BMP280;68362;45.970;12.646;2023-04-24T02:17:38;100378.88;;;13.05
78961;BMP280;68362;45.970;12.646;2023-04-24T02:18:40;100378.63;;;12.84
78961;BMP280;68362;45.970;12.646;2023-04-24T02:19:42;100372.69;;;12.77
78961;BMP280;68362;45.970;12.646;2023-04-24T02:20:44;100370.72;;;12.84
78961;BMP280;68362;45.970;12.646;2023-04-24T02:21:46;100371.63;;;13.12
78961;BMP280;68362;45.970;12.646;2023-04-24T02:22:49;100364.69;;;13.06
78961;BMP280;68362;45.970;12.646;2023-04-24T02:23:51;100360.56;;;13.15
78961;BMP280;68362;45.970;12.646;2023-04-24T02:24:53;100360.38;;;12.99
78961;BMP280;68362;45.970;12.646;2023-04-24T02:25:55;100362.84;;;12.89
78961;BMP280;68362;45.970;12.646;2023-04-24T02:26:57;100363.22;;;13.15
78961;BMP280;68362;45.970;12.646;2023-04-24T02:28:00;100359.13;;;13.02
78961;BMP280;68362;45.970;12.646;2023-04-24T02:29:02;100358.16;;;12.91
78961;BMP280;68362;45.970;12.646;2023-04-24T02:30:04;100355.72;;;13.07
78961;BMP280;68362;45.970;12.646;2023-04-24T02:31:07;100352.53;;;13.05
78961;BMP280;68362;45.970;12.646;2023-04-24T02:32:09;100359.00;;;13.14
78961;BMP280;68362;45.970;12.646;2023-04-24T02:33:14;100353.28;;;13.22
78961;BMP280;68362;45.970;12.646;2023-04-24T02:34:15;100357.34;;;13.08
78961;BMP280;68362;45.970;12.646;2023-04-24T02:35:18;100358.09;;;13.25
78961;BMP280;68362;45.970;12.646;2023-04-24T02:36:20;100359.06;;;13.19
78961;BMP280;68362;45.970;12.646;2023-04-24T02:37:22;100359.25;;;13.12
78961;BMP280;68362;45.970;12.646;2023-04-24T02:38:24;100356.41;;;12.97
78961;BMP280;68362;45.970;12.646;2023-04-24T02:39:26;100356.53;;;13.07
78961;BMP280;68362;45.970;12.646;2023-04-24T02:40:29;100350.25;;;12.91
78961;BMP280;68362;45.970;12.646;2023-04-24T02:41:31;100350.47;;;12.90
78961;BMP280;68362;45.970;12.646;2023-04-24T02:42:34;100352.78;;;13.20
78961;BMP280;68362;45.970;12.646;2023-04-24T02:43:36;100346.66;;;12.97
78961;BMP280;68362;45.970;12.646;2023-04-24T02:44:38;100346.63;;;13.14
78961;BMP280;68362;45.970;12.646;2023-04-24T02:45:40;100349.34;;;13.19
78961;BMP280;68362;45.970;12.646;2023-04-24T02:46:42;100342.28;;;13.25
78961;BMP280;68362;45.970;12.646;2023-04-24T02:47:45;100349.25;;;13.36
78961;BMP280;68362;45.970;12.646;2023-04-24T02:48:47;100334.91;;;13.27
78961;BMP280;68362;45.970;12.646;2023-04-24T02:49:49;100332.16;;;13.17
78961;BMP280;68362;45.970;12.646;2023-04-24T02:50:51;100337.22;;;13.01
78961;BMP280;68362;45.970;12.646;2023-04-24T02:51:53;100331.03;;;12.91
78961;BMP280;68362;45.970;12.646;2023-04-24T02:52:55;100336.38;;;12.96
78961;BMP280;68362;45.970;12.646;2023-04-24T02:53:57;100336.94;;;12.81
78961;BMP280;68362;45.970;12.646;2023-04-24T02:54:59;100342.28;;;12.86
78961;BMP280;68362;45.970;12.646;2023-04-24T02:56:01;100343.44;;;12.95
78961;BMP280;68362;45.970;12.646;2023-04-24T02:57:03;100342.94;;;12.98
78961;BMP280;68362;45.970;12.646;2023-04-24T02:58:06;100342.06;;;13.10
78961;BMP280;68362;45.970;12.646;2023-04-24T02:59:08;100340.78;;;12.90
78961;BMP280;68362;45.970;12.646;2023-04-24T03:00:10;100332.03;;;12.90
78961;BMP280;68362;45.970;12.646;2023-04-24T03:01:13;100339.94;;;13.07
78961;BMP280;68362;45.970;12.646;2023-04-24T03:02:15;100333.06;;;13.06
78961;BMP280;68362;45.970;12.646;2023-04-24T03:03:17;100335.44;;;13.07
78961;BMP280;68362;45.970;12.646;2023-04-24T03:04:20;100328.88;;;13.10
78961;BMP280;68362;45.970;12.646;2023-04-24T03:05:22;100320.56;;;13.18
78961;BMP280;68362;45.970;12.646;2023-04-24T03:06:24;100319.59;;;13.24
78961;BMP280;68362;45.970;12.646;2023-04-24T03:07:26;100315.66;;;13.26
78961;BMP280;68362;45.970;12.646;2023-04-24T03:08:28;100313.53;;;13.23
78961;BMP280;68362;45.970;12.646;2023-04-24T03:09:30;100307.50;;;13.28
78961;BMP280;68362;45.970;12.646;2023-04-24T03:10:32;100310.47;;;13.32
78961;BMP280;68362;45.970;12.646;2023-04-24T03:11:34;100315.84;;;13.42
78961;BMP280;68362;45.970;12.646;2023-04-24T03:12:37;100307.75;;;13.26
78961;BMP280;68362;45.970;12.646;2023-04-24T03:13:38;100307.13;;;13.41
78961;BMP280;68362;45.970;12.646;2023-04-24T03:14:40;100307.03;;;13.31
78961;BMP280;68362;45.970;12.646;2023-04-24T03:15:42;100305.19;;;13.32
78961;BMP280;68362;45.970;12.646;2023-04-24T03:16:45;100303.78;;;13.24
78961;BMP280;68362;45.970;12.646;2023-04-24T03:17:47;100307.97;;;13.20
78961;BMP280;68362;45.970;12.646;2023-04-24T03:18:49;100301.41;;;13.22
78961;BMP280;68362;45.970;12.646;2023-04-24T03:19:51;100306.44;;;13.02
78961;BMP280;68362;45.970;12.646;2023-04-24T03:20:53;100301.78;;;13.09
78961;BMP280;68362;45.970;12.646;2023-04-24T03:21:55;100306.56;;;12.95
78961;BMP280;68362;45.970;12.646;2023-04-24T03:22:57;100303.41;;;12.93
78961;BMP280;68362;45.970;12.646;2023-04-24T03:23:59;100303.25;;;12.83
78961;BMP280;68362;45.970;12.646;2023-04-24T03:25:02;100305.66;;;12.85
78961;BMP280;68362;45.970;12.646;2023-04-24T03:26:04;100305.94;;;13.05
78961;BMP280;68362;45.970;12.646;2023-04-24T03:27:06;100303.19;;;13.17
78961;BMP280;68362;45.970;12.646;2023-04-24T03:28:08;100300.19;;;13.08
78961;BMP280;68362;45.970;12.646;2023-04-24T03:29:10;100298.88;;;13.11
78961;BMP280;68362;45.970;12.646;2023-04-24T03:30:12;100299.44;;;13.13
78961;BMP280;68362;45.970;12.646;2023-04-24T03:31:15;100293.00;;;13.04
78961;BMP280;68362;45.970;12.646;2023-04-24T03:32:17;100293.00;;;13.04
78961;BMP280;68362;45.970;12.646;2023-04-24T03:33:19;100292.91;;;12.98
78961;BMP280;68362;45.970;12.646;2023-04-24T03:34:21;100284.22;;;12.98
78961;BMP280;68362;45.970;12.646;2023-04-24T03:35:23;100286.44;;;13.06
78961;BMP280;68362;45.970;12.646;2023-04-24T03:36:25;100290.16;;;12.88
78961;BMP280;68362;45.970;12.646;2023-04-24T03:37:28;100288.22;;;13.00
78961;BMP280;68362;45.970;12.646;2023-04-24T03:38:30;100292.91;;;12.77
78961;BMP280;68362;45.970;12.646;2023-04-24T03:39:32;100295.13;;;12.85
78961;BMP280;68362;45.970;12.646;2023-04-24T03:40:34;100287.72;;;13.04
78961;BMP280;68362;45.970;12.646;2023-04-24T03:41:36;100282.47;;;13.04
78961;BMP280;68362;45.970;12.646;2023-04-24T03:42:38;100282.75;;;13.07
78961;BMP280;68362;45.970;12.646;2023-04-24T03:43:40;100280.38;;;13.06
78961;BMP280;68362;45.970;12.646;2023-04-24T03:44:42;100282.59;;;13.14
78961;BMP280;68362;45.970;12.646;2023-04-24T03:45:45;100277.50;;;13.07
78961;BMP280;68362;45.970;12.646;2023-04-24T03:46:47;100271.59;;;13.00
78961;BMP280;68362;45.970;12.646;2023-04-24T03:47:49;100279.25;;;13.01
78961;BMP280;68362;45.970;12.646;2023-04-24T03:48:51;100278.97;;;12.98
78961;BMP280;68362;45.970;12.646;2023-04-24T03:49:53;100280.97;;;13.13
78961;BMP280;68362;45.970;12.646;2023-04-24T03:50:57;100281.34;;;12.99
78961;BMP280;68362;45.970;12.646;2023-04-24T03:51:59;100288.50;;;13.04
78961;BMP280;68362;45.970;12.646;2023-04-24T03:53:01;100278.53;;;13.06
78961;BMP280;68362;45.970;12.646;2023-04-24T03:54:03;100277.25;;;13.09
78961;BMP280;68362;45.970;12.646;2023-04-24T03:55:05;100272.72;;;13.26
78961;BMP280;68362;45.970;12.646;2023-04-24T03:56:08;100274.16;;;12.95
78961;BMP280;68362;45.970;12.646;2023-04-24T03:57:10;100270.56;;;12.79
78961;BMP280;68362;45.970;12.646;2023-04-24T03:58:12;100268.03;;;12.89
78961;BMP280;68362;45.970;12.646;2023-04-24T03:59:16;100267.69;;;13.02
78961;BMP280;68362;45.970;12.646;2023-04-24T04:00:18;100275.72;;;12.91
78961;BMP280;68362;45.970;12.646;2023-04-24T04:01:20;100261.94;;;13.06
78961;BMP280;68362;45.970;12.646;2023-04-24T04:02:22;100273.19;;;13.01
78961;BMP280;68362;45.970;12.646;2023-04-24T04:03:25;100269.72;;;13.17
78961;BMP280;68362;45.970;12.646;2023-04-24T04:04:27;100271.00;;;12.93
78961;BMP280;68362;45.970;12.646;2023-04-24T04:05:29;100274.41;;;12.93
78961;BMP280;68362;45.970;12.646;2023-04-24T04:06:32;100271.41;;;13.07
78961;BMP280;68362;45.970;12.646;2023-04-24T04:07:34;100272.91;;;12.97
78961;BMP280;68362;45.970;12.646;2023-04-24T04:08:36;100271.31;;;12.96
78961;BMP280;68362;45.970;12.646;2023-04-24T04:09:38;100264.06;;;12.87
78961;BMP280;68362;45.970;12.646;2023-04-24T04:10:43;100268.94;;;12.78
78961;BMP280;68362;45.970;12.646;2023-04-24T04:11:45;100269.28;;;12.82
78961;BMP280;68362;45.970;12.646;2023-04-24T04:12:47;100269.06;;;12.88
78961;BMP280;68362;45.970;12.646;2023-04-24T04:13:49;100269.59;;;12.85
78961;BMP280;68362;45.970;12.646;2023-04-24T04:14:52;100276.25;;;12.93
78961;BMP280;68362;45.970;12.646;2023-04-24T04:15:54;100268.81;;;12.90
78961;BMP280;68362;45.970;12.646;2023-04-24T04:16:56;100263.19;;;12.81
78961;BMP280;68362;45.970;12.646;2023-04-24T04:17:58;100269.69;;;12.73
78961;BMP280;68362;45.970;12.646;2023-04-24T04:19:00;100268.22;;;12.83
78961;BMP280;68362;45.970;12.646;2023-04-24T04:20:05;100265.81;;;12.81
78961;BMP280;68362;45.970;12.646;2023-04-24T04:21:11;100267.84;;;12.74
78961;BMP280;68362;45.970;12.646;2023-04-24T04:22:13;100254.88;;;12.89
78961;BMP280;68362;45.970;12.646;2023-04-24T04:23:16;100263.56;;;12.90
78961;BMP280;68362;45.970;12.646;2023-04-24T04:24:18;100262.84;;;12.94
78961;BMP280;68362;45.970;12.646;2023-04-24T04:25:19;100271.91;;;12.82
78961;BMP280;68362;45.970;12.646;2023-04-24T04:26:22;100270.19;;;12.92
78961;BMP280;68362;45.970;12.646;2023-04-24T04:27:27;100266.56;;;12.98
78961;BMP280;68362;45.970;12.646;2023-04-24T04:28:30;100266.78;;;12.92
78961;BMP280;68362;45.970;12.646;2023-04-24T04:29:33;100269.53;;;13.02
78961;BMP280;68362;45.970;12.646;2023-04-24T04:30:36;100265.34;;;13.06
78961;BMP280;68362;45.970;12.646;2023-04-24T04:31:40;100267.28;;;13.11
78961;BMP280;68362;45.970;12.646;2023-04-24T04:32:42;100266.66;;;13.04
78961;BMP280;68362;45.970;12.646;2023-04-24T04:33:44;100273.56;;;13.10
78961;BMP280;68362;45.970;12.646;2023-04-24T04:34:46;100272.44;;;13.27
78961;BMP280;68362;45.970;12.646;2023-04-24T04:35:51;100270.78;;;13.43
78961;BMP280;68362;45.970;12.646;2023-04-24T04:36:53;100271.91;;;13.25
78961;BMP280;68362;45.970;12.646;2023-04-24T04:37:55;100273.06;;;13.13
78961;BMP280;68362;45.970;12.646;2023-04-24T04:39:00;100276.81;;;13.17
78961;BMP280;68362;45.970;12.646;2023-04-24T04:40:03;100279.16;;;13.35
78961;BMP280;68362;45.970;12.646;2023-04-24T04:41:08;100269.03;;;13.27
78961;BMP280;68362;45.970;12.646;2023-04-24T04:42:10;100263.59;;;13.12
78961;BMP280;68362;45.970;12.646;2023-04-24T04:43:12;100272.84;;;13.14
78961;BMP280;68362;45.970;12.646;2023-04-24T04:44:18;100262.09;;;13.21
78961;BMP280;68362;45.970;12.646;2023-04-24T04:45:20;100268.97;;;13.22
78961;BMP280;68362;45.970;12.646;2023-04-24T04:46:22;100269.34;;;13.09
78961;BMP280;68362;45.970;12.646;2023-04-24T04:47:28;100262.59;;;13.18
78961;BMP280;68362;45.970;12.646;2023-04-24T04:48:30;100267.09;;;13.17
78961;BMP280;68362;45.970;12.646;2023-04-24T04:49:33;100267.88;;;13.18
78961;BMP280;68362;45.970;12.646;2023-04-24T04:50:35;100269.19;;;12.98
78961;BMP280;68362;45.970;12.646;2023-04-24T04:51:37;100265.47;;;12.94
78961;BMP280;68362;45.970;12.646;2023-04-24T04:52:43;100275.47;;;12.92
78961;BMP280;68362;45.970;12.646;2023-04-24T04:53:45;100271.81;;;12.98
78961;BMP280;68362;45.970;12.646;2023-04-24T04:54:47;100271.00;;;12.93
78961;BMP280;68362;45.970;12.646;2023-04-24T04:55:49;100269.59;;;13.07
78961;BMP280;68362;45.970;12.646;2023-04-24T04:56:51;100271.56;;;13.17
78961;BMP280;68362;45.970;12.646;2023-04-24T04:57:53;100269.06;;;13.10
78961;BMP280;68362;45.970;12.646;2023-04-24T04:58:57;100275.09;;;13.06
78961;BMP280;68362;45.970;12.646;2023-04-24T05:00:00;100269.34;;;13.09
78961;BMP280;68362;45.970;12.646;2023-04-24T05:01:03;100270.91;;;13.10
78961;BMP280;68362;45.970;12.646;2023-04-24T05:02:05;100270.81;;;12.99
78961;BMP280;68362;45.970;12.646;2023-04-24T05:03:07;100273.19;;;13.01
78961;BMP280;68362;45.970;12.646;2023-04-24T05:04:21;100275.72;;;13.13
78961;BMP280;68362;45.970;12.646;2023-04-24T05:05:23;100268.16;;;13.21
78961;BMP280;68362;45.970;12.646;2023-04-24T05:06:25;100274.31;;;13.05
78961;BMP280;68362;45.970;12.646;2023-04-24T05:07:27;100266.66;;;13.04
78961;BMP280;68362;45.970;12.646;2023-04-24T05:08:29;100276.94;;;13.05
78961;BMP280;68362;45.970;12.646;2023-04-24T05:09:31;100264.44;;;12.95
78961;BMP280;68362;45.970;12.646;2023-04-24T05:10:34;100268.03;;;12.89
78961;BMP280;68362;45.970;12.646;2023-04-24T05:11:36;100274.31;;;13.05
78961;BMP280;68362;45.970;12.646;2023-04-24T05:12:38;100262.13;;;12.99
78961;BMP280;68362;45.970;12.646;2023-04-24T05:13:40;100268.19;;;12.99
78961;BMP280;68362;45.970;12.646;2023-04-24T05:14:42;100265.72;;;12.93
78961;BMP280;68362;45.970;12.646;2023-04-24T05:15:44;100264.38;;;12.90
78961;BMP280;68362;45.970;12.646;2023-04-24T05:16:46;100269.66;;;12.90
78961;BMP280;68362;45.970;12.646;2023-04-24T05:17:49;100264.09;;;13.09
78961;BMP280;68362;45.970;12.646;2023-04-24T05:18:51;100271.13;;;13.03
78961;BMP280;68362;45.970;12.646;2023-04-24T05:19:53;100267.78;;;13.08
78961;BMP280;68362;45.970;12.646;2023-04-24T05:20:55;100257.34;;;12.96
78961;BMP280;68362;45.970;12.646;2023-04-24T05:21:58;100266.78;;;13.14
78961;BMP280;68362;45.970;12.646;2023-04-24T05:23:00;100271.84;;;13.20
78961;BMP280;68362;45.970;12.646;2023-04-24T05:24:02;100267.94;;;13.23
78961;BMP280;68362;45.970;12.646;2023-04-24T05:25:04;100269.34;;;13.09
78961;BMP280;68362;45.970;12.646;2023-04-24T05:26:07;100268.84;;;13.12
78961;BMP280;68362;45.970;12.646;2023-04-24T05:27:09;100261.31;;;13.20
78961;BMP280;68362;45.970;12.646;2023-04-24T05:28:11;100261.31;;;13.20
78961;BMP280;68362;45.970;12.646;2023-04-24T05:29:13;100260.38;;;13.10
78961;BMP280;68362;45.970;12.646;2023-04-24T05:30:15;100267.97;;;13.28
78961;BMP280;68362;45.970;12.646;2023-04-24T05:31:17;100262.59;;;13.18
78961;BMP280;68362;45.970;12.646;2023-04-24T05:32:19;100263.03;;;13.32
78961;BMP280;68362;45.970;12.646;2023-04-24T05:33:22;100263.22;;;13.25
78961;BMP280;68362;45.970;12.646;2023-04-24T05:34:24;100267.97;;;13.28
78961;BMP280;68362;45.970;12.646;2023-04-24T05:35:26;100265.03;;;13.19
78961;BMP280;68362;45.970;12.646;2023-04-24T05:36:28;100263.41;;;13.18
78961;BMP280;68362;45.970;12.646;2023-04-24T05:37:30;100269.44;;;13.14
78961;BMP280;68362;45.970;12.646;2023-04-24T05:38:32;100263.47;;;13.23
78961;BMP280;68362;45.970;12.646;2023-04-24T05:39:35;100269.78;;;13.22
78961;BMP280;68362;45.970;12.646;2023-04-24T05:40:37;100280.19;;;13.12
78961;BMP280;68362;45.970;12.646;2023-04-24T05:41:39;100266.56;;;13.20
78961;BMP280;68362;45.970;12.646;2023-04-24T05:42:42;100267.38;;;13.21
78961;BMP280;68362;45.970;12.646;2023-04-24T05:43:43;100274.78;;;13.24
78961;BMP280;68362;45.970;12.646;2023-04-24T05:44:45;100273.50;;;13.26
78961;BMP280;68362;45.970;12.646;2023-04-24T05:45:47;100280.97;;;13.13
78961;BMP280;68362;45.970;12.646;2023-04-24T05:46:50;100277.50;;;13.07
78961;BMP280;68362;45.970;12.646;2023-04-24T05:47:52;100283.41;;;13.14
78961;BMP280;68362;45.970;12.646;2023-04-24T05:48:54;100280.34;;;13.27
78961;BMP280;68362;45.970;12.646;2023-04-24T05:49:56;100287.22;;;13.07